Time;durP1;ratioP1;P1;durP2;ratioP2;P2;SDS_P1;SDS_P2;PMS_P1;PMS_P2;Temp;Humidity;BMP_temperature;BMP_pressure;BME280_temperature;BME280_humidity;BME280_pressure;Samples;Min_cycle;Max_cycle;Signal;HPM_P1;HPM_P2
2023/01/20 00:00:08;;;;;;;78.97;55.78;;;;;;;-0.40;100.00;101008.81;4992470;28;20035;-75
2023/01/20 00:02:33;;;;;;;81.43;56.20;;;;;;;-0.45;100.00;101010.69;4978868;28;20048;-78
2023/01/20 00:04:58;;;;;;;84.25;57.95;;;;;;;-0.41;100.00;101020.06;4990380;28;20422;-75
2023/01/20 00:07:24;;;;;;;87.50;58.15;;;;;;;-0.47;100.00;101020.22;4993995;28;20041;-75
2023/01/20 00:09:49;;;;;;;87.03;58.55;;;;;;;-0.48;100.00;101021.09;5005557;28;20037;-75
2023/01/20 00:12:15;;;;;;;85.72;58.60;;;;;;;-0.44;100.00;101022.72;5000465;28;20072;-75
2023/01/20 00:14:40;;;;;;;90.18;58.67;;;;;;;-0.46;100.00;101027.09;4996135;28;20026;-75
2023/01/20 00:17:05;;;;;;;90.35;60.53;;;;;;;-0.45;100.00;101015.84;5003347;28;20415;-77
2023/01/20 00:19:30;;;;;;;89.18;58.53;;;;;;;-0.45;100.00;101029.63;4992477;28;20034;-78
2023/01/20 00:21:56;;;;;;;85.25;57.72;;;;;;;-0.42;100.00;101026.13;4998175;28;20034;-75
2023/01/20 00:24:21;;;;;;;84.85;56.72;;;;;;;-0.47;100.00;101027.97;4984328;28;20124;-76
2023/01/20 00:26:47;;;;;;;78.70;53.58;;;;;;;-0.47;100.00;101027.97;5003776;28;20047;-75
2023/01/20 00:29:12;;;;;;;83.30;54.38;;;;;;;-0.48;100.00;101027.13;4999548;28;20045;-75
2023/01/20 00:31:38;;;;;;;79.95;51.15;;;;;;;-0.48;100.00;101031.44;4988855;28;20457;-77
2023/01/20 00:34:04;;;;;;;78.63;52.47;;;;;;;-0.49;100.00;101034.91;4982927;28;20096;-77
2023/01/20 00:36:31;;;;;;;83.22;52.65;;;;;;;-0.54;100.00;101042.78;5011974;28;20493;-76
2023/01/20 00:38:56;;;;;;;81.18;52.20;;;;;;;-0.48;100.00;101036.63;5013112;28;20038;-76
2023/01/20 00:41:22;;;;;;;88.05;55.60;;;;;;;-0.52;100.00;101035.00;5012310;28;20030;-76
2023/01/20 00:43:48;;;;;;;88.85;56.47;;;;;;;-0.51;100.00;101045.28;5003377;28;20390;-76
2023/01/20 00:46:14;;;;;;;90.55;56.05;;;;;;;-0.54;100.00;101044.53;4988503;28;20143;-76
2023/01/20 00:48:40;;;;;;;87.55;54.83;;;;;;;-0.54;100.00;101040.19;4985248;28;20042;-76
2023/01/20 00:51:06;;;;;;;88.18;55.92;;;;;;;-0.55;100.00;101041.09;5007598;28;20037;-76
2023/01/20 00:53:32;;;;;;;86.20;55.22;;;;;;;-0.54;100.00;101047.09;5009969;28;20146;-76
2023/01/20 00:55:58;;;;;;;90.45;54.97;;;;;;;-0.51;100.00;101049.63;5011262;28;20553;-75
2023/01/20 00:58:23;;;;;;;86.80;54.40;;;;;;;-0.51;100.00;101054.78;4994031;28;20117;-76
2023/01/20 01:00:50;;;;;;;84.72;55.75;;;;;;;-0.55;100.00;101054.00;5011393;28;20022;-76
2023/01/20 01:03:16;;;;;;;87.70;55.53;;;;;;;-0.57;100.00;101058.38;4990424;28;20042;-76
2023/01/20 01:05:41;;;;;;;82.75;51.78;;;;;;;-0.50;100.00;101053.91;5005346;28;20038;-76
2023/01/20 01:08:07;;;;;;;82.45;52.78;;;;;;;-0.50;100.00;101059.06;5000252;28;20073;-76
2023/01/20 01:10:32;;;;;;;76.03;49.35;;;;;;;-0.50;100.00;101065.06;4992866;28;20455;-75
2023/01/20 01:13:02;;;;;;;77.70;48.88;;;;;;;-0.53;100.00;101066.91;5010830;28;20498;-76
2023/01/20 01:15:28;;;;;;;83.10;49.05;;;;;;;-0.56;100.00;101070.41;5012565;28;20080;-76
2023/01/20 01:17:57;;;;;;;82.82;49.70;;;;;;;-0.56;100.00;101080.75;4993096;28;20037;-76
2023/01/20 01:20:23;;;;;;;79.32;48.42;;;;;;;-0.56;100.00;101077.31;4971066;28;20038;-76
2023/01/20 01:22:49;;;;;;;82.75;49.63;;;;;;;-0.55;100.00;101089.34;4993579;28;20118;-75
2023/01/20 01:25:15;;;;;;;79.07;47.92;;;;;;;-0.53;100.00;101084.97;5010092;28;20111;-75
2023/01/20 01:27:40;;;;;;;78.10;47.33;;;;;;;-0.52;100.00;101082.34;5012147;28;20053;-75
2023/01/20 01:30:06;;;;;;;80.18;48.10;;;;;;;-0.53;100.00;101085.81;4996335;28;20498;-75
2023/01/20 01:32:32;;;;;;;84.75;48.38;;;;;;;-0.57;100.00;101083.38;4976866;28;20094;-75
2023/01/20 01:34:57;;;;;;;84.20;49.15;;;;;;;-0.56;100.00;101080.75;4956024;28;20038;-75
2023/01/20 01:37:23;;;;;;;77.15;45.95;;;;;;;-0.55;100.00;101079.84;4988643;28;20146;-75
2023/01/20 01:39:49;;;;;;;82.63;46.78;;;;;;;-0.53;100.00;101088.41;4996803;28;20026;-76
2023/01/20 01:42:21;;;;;;;79.90;46.83;;;;;;;-0.55;100.00;101089.34;5000541;28;20042;-76
2023/01/20 01:45:11;;;;;;;46.45;13.27;;;;;;;-0.46;100.00;101092.53;5008741;28;20526;-76
2023/01/20 01:47:40;;;;;;;80.70;45.45;;;;;;;-0.55;100.00;101089.34;5009965;28;20475;-76
2023/01/20 01:50:10;;;;;;;82.68;46.70;;;;;;;-0.54;100.00;101088.44;5009710;28;20073;-76
2023/01/20 01:52:39;;;;;;;80.63;46.83;;;;;;;-0.52;100.00;101092.69;4998109;28;20031;-76
2023/01/20 01:55:04;;;;;;;82.60;46.22;;;;;;;-0.49;100.00;101090.03;4969872;28;20042;-76
2023/01/20 01:57:31;;;;;;;86.88;47.40;;;;;;;-0.50;100.00;101090.91;4983474;28;20089;-76
2023/01/20 01:59:56;;;;;;;90.15;50.28;;;;;;;-0.47;100.00;101090.00;5004580;28;20063;-76
2023/01/20 02:02:22;;;;;;;93.05;50.10;;;;;;;-0.48;100.00;101088.28;5008951;28;20550;-76
2023/01/20 02:04:47;;;;;;;84.10;48.35;;;;;;;-0.43;100.00;101086.44;5010237;28;20044;-76
2023/01/20 02:07:18;;;;;;;87.50;49.08;;;;;;;-0.42;100.00;101093.31;5004381;28;20410;-76
2023/01/20 02:09:45;;;;;;;90.13;49.83;;;;;;;-0.43;100.00;101082.13;4977024;28;20092;-76
2023/01/20 02:12:16;;;;;;;89.78;48.75;;;;;;;-0.40;100.00;101101.88;5008492;28;20121;-77
2023/01/20 02:14:52;;;;;;;90.35;48.60;;;;;;;-0.43;100.00;101094.19;4994786;28;20097;-76
2023/01/20 02:17:26;;;;;;;88.00;47.83;;;;;;;-0.41;100.00;101097.59;4969568;28;20045;-76
2023/01/20 02:20:19;;;;;;;92.57;49.60;;;;;;;-0.41;100.00;101100.19;4984343;28;20396;-76
2023/01/20 02:22:57;;;;;;;83.07;47.67;;;;;;;-0.47;100.00;101096.00;5003586;28;20045;-76
2023/01/20 02:25:39;;;;;;;90.40;47.75;;;;;;;-0.43;100.00;101101.94;4980043;28;20040;-76
2023/01/20 02:28:23;;;;;;;89.60;48.60;;;;;;;-0.49;100.00;101100.38;4969859;28;20456;-76
2023/01/20 02:31:05;;;;;;;84.25;46.80;;;;;;;-0.47;100.00;101105.50;5008965;28;20482;-76
2023/01/20 02:33:39;;;;;;;86.03;46.08;;;;;;;-0.50;100.00;101111.59;5006013;28;20053;-76
2023/01/20 02:36:11;;;;;;;85.22;46.33;;;;;;;-0.49;100.00;101107.28;4992514;28;20037;-76
2023/01/20 02:39:17;;;;;;;90.10;48.03;;;;;;;-0.41;100.00;101116.53;4991265;28;20397;-76
2023/01/20 02:42:15;;;;;;;86.75;47.10;;;;;;;-0.42;100.00;101114.00;4953604;28;20125;-76
2023/01/20 02:45:05;;;;;;;86.03;45.92;;;;;;;-0.43;100.00;101114.88;5001332;28;20483;-76
2023/01/20 02:47:56;;;;;;;79.93;44.83;;;;;;;-0.45;100.00;101114.06;5008202;28;20084;-76
2023/01/20 02:50:29;;;;;;;82.68;45.63;;;;;;;-0.47;100.00;101102.91;5009525;28;20042;-76
2023/01/20 02:52:58;;;;;;;84.28;46.80;;;;;;;-0.49;100.00;101115.03;5011004;28;20030;-76
2023/01/20 02:55:36;;;;;;;79.55;45.15;;;;;;;-0.47;100.00;101115.84;4995067;28;20173;-76
2023/01/20 02:58:07;;;;;;;81.45;46.35;;;;;;;-0.53;100.00;101111.66;5002469;28;20061;-76
2023/01/20 03:00:43;;;;;;;85.25;46.53;;;;;;;-0.53;100.00;101110.81;4993782;28;20026;-76
2023/01/20 03:03:12;;;;;;;83.50;45.17;;;;;;;-0.52;100.00;101102.19;4970007;28;20125;-76
2023/01/20 03:06:01;;;;;;;85.10;46.42;;;;;;;-0.47;100.00;101116.69;4991505;28;20367;-76
2023/01/20 03:08:31;;;;;;;84.25;45.75;;;;;;;-0.53;100.00;101116.00;4969676;28;20034;-76
2023/01/20 03:11:02;;;;;;;84.68;45.88;;;;;;;-0.54;100.00;101107.38;5000569;28;20086;-76
2023/01/20 03:13:34;;;;;;;78.47;45.67;;;;;;;-0.53;100.00;101119.41;4992779;28;20037;-76
2023/01/20 03:16:04;;;;;;;83.35;44.83;;;;;;;-0.51;100.00;101114.22;4971329;28;20479;-76
2023/01/20 03:18:33;;;;;;;79.72;44.75;;;;;;;-0.55;100.00;101112.59;4978492;28;20030;-76
2023/01/20 03:21:00;;;;;;;82.18;45.25;;;;;;;-0.54;100.00;101122.03;4991514;28;20026;-76
2023/01/20 03:23:32;;;;;;;86.20;46.70;;;;;;;-0.53;100.00;101127.19;5008426;28;20030;-76
2023/01/20 03:25:58;;;;;;;86.88;45.83;;;;;;;-0.56;100.00;101113.47;5009447;28;20041;-76
2023/01/20 03:28:23;;;;;;;83.68;45.03;;;;;;;-0.55;100.00;101115.19;5004905;28;20038;-76
2023/01/20 03:30:49;;;;;;;85.93;45.28;;;;;;;-0.56;100.00;101119.50;4987456;28;20117;-76
2023/01/20 03:33:16;;;;;;;93.65;46.58;;;;;;;-0.56;100.00;101137.59;4989660;28;20395;-76
2023/01/20 03:35:42;;;;;;;85.80;46.25;;;;;;;-0.55;100.00;101134.13;4986221;28;20051;-76
2023/01/20 03:38:08;;;;;;;82.60;46.30;;;;;;;-0.51;100.00;101135.75;4988796;28;20045;-76
2023/01/20 03:40:43;;;;;;;86.93;46.30;;;;;;;-0.53;100.00;101141.84;4999897;28;20069;-76
2023/01/20 03:43:24;;;;;;;84.93;46.05;;;;;;;-0.55;100.00;101139.28;4991296;28;20080;-76
2023/01/20 03:46:14;;;;;;;87.85;47.05;;;;;;;-0.50;100.00;101132.28;4997485;28;20026;-75
2023/01/20 03:48:59;;;;;;;87.35;47.88;;;;;;;-0.50;100.00;101136.59;5009473;28;20416;-75
2023/01/20 03:51:44;;;;;;;88.90;48.38;;;;;;;-0.47;100.00;101142.53;4976771;28;20035;-75
2023/01/20 03:54:17;;;;;;;91.95;51.15;;;;;;;-0.48;100.00;101139.97;4984626;28;20070;-75
2023/01/20 03:56:50;;;;;;;90.07;50.78;;;;;;;-0.51;100.00;101135.75;4958574;28;20038;-75
2023/01/20 03:59:18;;;;;;;91.78;50.35;;;;;;;-0.54;100.00;101138.41;4990541;28;20113;-75
2023/01/20 04:01:44;;;;;;;93.78;53.50;;;;;;;-0.50;100.00;101131.41;4999791;28;20038;-76
2023/01/20 04:04:16;;;;;;;95.85;50.47;;;;;;;-0.47;100.00;101146.84;5004069;28;20121;-76
2023/01/20 04:06:43;;;;;;;54.30;17.65;;;;;;;-0.39;100.00;101144.97;4973828;28;20046;-76
2023/01/20 04:09:16;;;;;;;51.13;15.80;;;;;;;-0.38;100.00;101146.66;4980113;28;20487;-76
2023/01/20 04:11:41;;;;;;;92.00;52.08;;;;;;;-0.48;100.00;101140.84;5001692;28;20038;-76
2023/01/20 04:14:10;;;;;;;96.30;53.53;;;;;;;-0.54;100.00;101146.16;4999523;28;20045;-76
2023/01/20 04:16:36;;;;;;;94.53;53.10;;;;;;;-0.54;100.00;101145.31;5009202;28;20037;-76
2023/01/20 04:19:01;;;;;;;89.60;51.95;;;;;;;-0.52;100.00;101141.78;4993285;28;20209;-76
2023/01/20 04:21:38;;;;;;;92.00;52.38;;;;;;;-0.55;100.00;101153.94;4988033;28;20113;-76
2023/01/20 04:24:23;;;;;;;91.53;50.80;;;;;;;-0.55;100.00;101143.59;4999447;28;20062;-73
2023/01/20 04:26:48;;;;;;;90.80;51.63;;;;;;;-0.61;100.00;101144.59;4977318;28;20551;-77
2023/01/20 04:29:14;;;;;;;88.72;48.72;;;;;;;-0.64;100.00;101137.78;4979262;28;20096;-76
2023/01/20 04:31:39;;;;;;;83.63;49.45;;;;;;;-0.63;100.00;101141.22;4984015;28;20066;-77
2023/01/20 04:34:05;;;;;;;86.13;49.83;;;;;;;-0.63;100.00;101136.03;4973042;28;20031;-76
2023/01/20 04:36:30;;;;;;;82.97;49.22;;;;;;;-0.66;100.00;101143.88;4973233;28;20037;-76
2023/01/20 04:38:56;;;;;;;40.60;13.65;;;;;;;-0.58;100.00;101139.34;4990898;28;20058;-76
2023/01/20 04:41:22;;;;;;;51.08;14.75;;;;;;;-0.56;100.00;101142.75;4990779;28;20065;-76
2023/01/20 04:43:48;;;;;;;81.90;47.58;;;;;;;-0.64;100.00;101145.53;4989070;28;20133;-76
2023/01/20 04:46:14;;;;;;;79.70;46.80;;;;;;;-0.64;100.00;101150.69;5011445;28;20038;-76
2023/01/20 04:48:40;;;;;;;84.93;47.33;;;;;;;-0.63;100.00;101146.38;4995020;28;20045;-76
2023/01/20 04:51:06;;;;;;;87.75;48.40;;;;;;;-0.66;100.00;101152.47;4975344;28;20042;-76
2023/01/20 04:53:32;;;;;;;81.55;49.20;;;;;;;-0.66;100.00;101155.03;4993075;28;20456;-76
2023/01/20 04:55:57;;;;;;;77.88;47.30;;;;;;;-0.63;100.00;101161.88;5009568;28;20113;-76
2023/01/20 04:58:22;;;;;;;87.28;49.38;;;;;;;-0.64;100.00;101153.28;5008699;28;20033;-76
2023/01/20 05:00:48;;;;;;;81.40;47.78;;;;;;;-0.65;100.00;101159.31;4995144;28;20065;-76
2023/01/20 05:03:14;;;;;;;81.45;48.05;;;;;;;-0.66;100.00;101152.47;5011490;28;20034;-76
2023/01/20 05:05:40;;;;;;;82.72;48.33;;;;;;;-0.68;100.00;101161.13;5005003;28;20113;-76
2023/01/20 05:08:06;;;;;;;86.65;49.75;;;;;;;-0.70;100.00;101156.00;5008586;28;20142;-76
2023/01/20 05:10:32;;;;;;;85.47;49.47;;;;;;;-0.65;100.00;101159.31;4993687;28;20446;-76
2023/01/20 05:12:58;;;;;;;88.80;50.30;;;;;;;-0.62;100.00;101166.16;5012756;28;20041;-76
2023/01/20 05:15:23;;;;;;;91.15;51.05;;;;;;;-0.62;100.00;101163.56;4976688;28;20042;-76
2023/01/20 05:17:48;;;;;;;44.13;15.77;;;;;;;-0.52;100.00;101169.38;4972681;28;20042;-77
2023/01/20 05:20:14;;;;;;;48.25;13.10;;;;;;;-0.52;100.00;101159.03;4955738;28;20034;-76
2023/01/20 05:22:39;;;;;;;87.57;49.95;;;;;;;-0.61;100.00;101159.25;4986682;28;20041;-76
2023/01/20 05:25:05;;;;;;;86.22;48.53;;;;;;;-0.64;100.00;101176.53;4999338;28;20041;-76
2023/01/20 05:27:33;;;;;;;88.80;49.72;;;;;;;-0.64;100.00;101176.53;4998676;28;20061;-76
2023/01/20 05:29:59;;;;;;;92.82;48.55;;;;;;;-0.65;100.00;101176.56;4991754;28;20034;-76
2023/01/20 05:32:24;;;;;;;86.82;47.40;;;;;;;-0.68;100.00;101174.91;4989816;28;20035;-76
2023/01/20 05:34:49;;;;;;;86.90;47.47;;;;;;;-0.63;100.00;101175.66;4992173;28;20430;-76
2023/01/20 05:37:17;;;;;;;87.03;47.17;;;;;;;-0.64;100.00;101181.69;4991629;28;20046;-76
2023/01/20 05:39:42;;;;;;;85.45;46.67;;;;;;;-0.64;100.00;101166.19;4989788;28;20052;-76
2023/01/20 05:42:08;;;;;;;85.53;47.90;;;;;;;-0.60;100.00;101173.88;4975356;28;20941;-76
2023/01/20 05:44:34;;;;;;;81.60;45.38;;;;;;;-0.63;100.00;101173.06;4993249;28;20615;-76
2023/01/20 05:47:00;;;;;;;86.38;47.53;;;;;;;-0.60;100.00;101177.31;5011879;28;20038;-76
2023/01/20 05:49:26;;;;;;;82.88;46.72;;;;;;;-0.60;100.00;101156.63;5010545;28;20364;-76
2023/01/20 05:51:51;;;;;;;80.05;45.33;;;;;;;-0.59;100.00;101173.00;4996292;28;20045;-76
2023/01/20 05:54:17;;;;;;;80.90;46.55;;;;;;;-0.58;100.00;101190.19;4998466;28;20049;-76
2023/01/20 05:56:43;;;;;;;82.15;45.00;;;;;;;-0.56;100.00;101188.41;4972456;28;20101;-76
2023/01/20 05:59:08;;;;;;;81.00;46.00;;;;;;;-0.54;100.00;101190.09;4981131;28;20041;-76
2023/01/20 06:01:34;;;;;;;77.97;44.50;;;;;;;-0.51;100.00;101189.16;4992072;28;20053;-77
2023/01/20 06:03:59;;;;;;;80.47;44.90;;;;;;;-0.50;100.00;101183.09;5010312;28;20041;-76
2023/01/20 06:06:25;;;;;;;76.93;42.47;;;;;;;-0.50;100.00;101193.44;4989762;28;20431;-76
2023/01/20 06:08:52;;;;;;;77.03;43.65;;;;;;;-0.51;100.00;101197.75;4993269;28;20661;-77
2023/01/20 06:11:17;;;;;;;45.45;13.90;;;;;;;-0.42;100.00;101201.88;4988124;28;20574;-76
2023/01/20 06:13:43;;;;;;;73.38;43.42;;;;;;;-0.50;100.00;101199.47;4989034;28;20034;-77
2023/01/20 06:16:08;;;;;;;74.95;43.90;;;;;;;-0.52;100.00;101205.56;4967023;28;20093;-77
2023/01/20 06:18:34;;;;;;;80.82;43.28;;;;;;;-0.53;100.00;101203.84;4974804;28;20137;-77
2023/01/20 06:21:00;;;;;;;72.32;43.65;;;;;;;-0.51;100.00;101202.09;4984102;28;20403;-77
2023/01/20 06:23:26;;;;;;;73.47;42.88;;;;;;;-0.52;100.00;101208.13;4989991;28;20042;-77
2023/01/20 06:25:59;;;;;;;75.60;44.00;;;;;;;-0.50;100.00;101203.78;4990836;28;20043;-77
2023/01/20 06:28:26;;;;;;;74.10;43.80;;;;;;;-0.53;100.00;101203.84;5003196;28;20435;-77
2023/01/20 06:31:11;;;;;;;78.55;44.00;;;;;;;-0.51;100.00;101209.84;4996537;28;20034;-77
2023/01/20 06:33:38;;;;;;;77.93;43.85;;;;;;;-0.51;100.00;101208.09;4990989;28;20049;-76
2023/01/20 06:36:04;;;;;;;43.63;13.38;;;;;;;-0.42;100.00;101213.06;5008866;28;20069;-77
2023/01/20 06:38:31;;;;;;;77.28;44.47;;;;;;;-0.50;100.00;101206.38;5010446;28;20529;-77
2023/01/20 06:41:03;;;;;;;70.93;42.80;;;;;;;-0.48;100.00;101212.34;5010264;28;20037;-77
2023/01/20 06:43:31;;;;;;;75.65;44.88;;;;;;;-0.47;100.00;101207.13;5000921;28;20036;-77
2023/01/20 06:46:04;;;;;;;49.20;13.10;;;;;;;-0.37;100.00;101205.22;4994056;28;20089;-77
2023/01/20 06:48:31;;;;;;;78.82;44.17;;;;;;;-0.47;100.00;101199.38;4989154;28;20038;-77
2023/01/20 06:51:01;;;;;;;76.22;44.22;;;;;;;-0.45;100.00;101199.34;4990581;28;20161;-77
2023/01/20 06:53:26;;;;;;;76.07;43.55;;;;;;;-0.49;100.00;101195.16;4991250;28;20076;-76
2023/01/20 06:55:56;;;;;;;77.07;43.47;;;;;;;-0.48;100.00;101194.25;4992442;28;20570;-77
2023/01/20 06:58:23;;;;;;;80.20;44.05;;;;;;;-0.50;100.00;101207.22;4992478;28;20038;-76
2023/01/20 07:00:49;;;;;;;82.15;43.65;;;;;;;-0.47;100.00;101206.28;4994333;28;20034;-76
2023/01/20 07:03:14;;;;;;;76.80;43.60;;;;;;;-0.49;100.00;101195.16;4989642;28;20035;-76
2023/01/20 07:05:39;;;;;;;80.47;44.20;;;;;;;-0.45;100.00;101201.94;5005721;28;20038;-77
2023/01/20 07:08:05;;;;;;;74.45;42.67;;;;;;;-0.52;100.00;101201.22;4990874;28;20034;-76
2023/01/20 07:10:30;;;;;;;79.20;45.17;;;;;;;-0.51;100.00;101204.66;5005474;28;20049;-76
2023/01/20 07:12:56;;;;;;;75.38;44.72;;;;;;;-0.50;100.00;101201.19;4986626;28;20041;-76
2023/01/20 07:15:21;;;;;;;76.35;43.47;;;;;;;-0.51;100.00;101196.91;5006896;28;20056;-76
2023/01/20 07:17:46;;;;;;;76.22;42.53;;;;;;;-0.52;100.00;101201.22;4980006;28;20049;-76
2023/01/20 07:20:15;;;;;;;71.13;42.65;;;;;;;-0.51;100.00;101205.50;4971645;28;20026;-76
2023/01/20 07:22:41;;;;;;;74.10;43.22;;;;;;;-0.52;100.00;101202.97;4998289;28;20030;-77
2023/01/20 07:25:06;;;;;;;69.88;42.08;;;;;;;-0.51;100.00;101202.94;4984272;28;20533;-76
2023/01/20 07:27:32;;;;;;;38.10;12.68;;;;;;;-0.43;100.00;101215.66;4989882;28;20085;-76
2023/01/20 07:29:57;;;;;;;69.30;41.92;;;;;;;-0.52;100.00;101210.72;4963565;28;20031;-76
2023/01/20 07:32:22;;;;;;;71.55;42.50;;;;;;;-0.50;100.00;101212.38;4958397;28;20062;-76
2023/01/20 07:34:48;;;;;;;72.47;42.97;;;;;;;-0.50;100.00;101219.28;4989638;28;20037;-77
2023/01/20 07:37:13;;;;;;;44.22;13.65;;;;;;;-0.43;100.00;101220.84;5008925;28;20038;-75
2023/01/20 07:39:39;;;;;;;70.35;42.45;;;;;;;-0.49;100.00;101220.97;5009780;28;20441;-75
2023/01/20 07:42:05;;;;;;;71.25;42.45;;;;;;;-0.50;100.00;101225.31;4983245;28;20031;-75
2023/01/20 07:44:31;;;;;;;69.10;42.50;;;;;;;-0.49;100.00;101231.31;4995196;28;20041;-75
2023/01/20 07:46:56;;;;;;;77.00;42.22;;;;;;;-0.49;100.00;101232.16;5007021;28;20254;-75
2023/01/20 07:49:21;;;;;;;71.63;42.42;;;;;;;-0.48;100.00;101240.78;5010013;28;20088;-75
2023/01/20 07:51:47;;;;;;;69.32;41.58;;;;;;;-0.47;100.00;101247.66;5008197;28;20049;-74
2023/01/20 07:54:12;;;;;;;70.07;41.67;;;;;;;-0.45;100.00;101251.03;5009672;28;20035;-75
2023/01/20 07:56:38;;;;;;;72.45;40.97;;;;;;;-0.44;100.00;101250.16;4983850;28;20045;-75
2023/01/20 07:59:03;;;;;;;68.82;40.85;;;;;;;-0.47;100.00;101251.06;4989258;28;20038;-74
2023/01/20 08:01:30;;;;;;;69.53;41.45;;;;;;;-0.46;100.00;101257.94;4971138;28;20061;-75
2023/01/20 08:03:59;;;;;;;69.63;42.00;;;;;;;-0.44;100.00;101255.31;4988947;28;20105;-77
2023/01/20 08:06:25;;;;;;;69.63;41.85;;;;;;;-0.45;100.00;101258.78;4989475;28;20033;-77
2023/01/20 08:08:51;;;;;;;70.45;42.33;;;;;;;-0.44;100.00;101255.31;4989929;28;20046;-74
2023/01/20 08:11:19;;;;;;;64.00;40.08;;;;;;;-0.43;100.00;101252.72;4989832;28;20034;-75
2023/01/20 08:13:45;;;;;;;66.40;40.30;;;;;;;-0.45;100.00;101257.06;4989569;28;20030;-75
2023/01/20 08:16:13;;;;;;;62.08;38.90;;;;;;;-0.44;100.00;101258.75;4990155;28;20045;-75
2023/01/20 08:18:39;;;;;;;65.68;39.75;;;;;;;-0.43;100.00;101263.03;4988368;28;20817;-74
2023/01/20 08:21:07;;;;;;;30.30;11.40;;;;;;;-0.34;100.00;101251.69;4972268;28;20033;-74
2023/01/20 08:23:36;;;;;;;62.28;38.65;;;;;;;-0.39;100.00;101259.53;4982430;28;20502;-74
2023/01/20 08:26:05;;;;;;;58.25;37.28;;;;;;;-0.37;100.00;101264.69;4969010;28;20039;-74
2023/01/20 08:28:31;;;;;;;58.95;38.13;;;;;;;-0.33;100.00;101258.53;4972080;28;20042;-76
2023/01/20 08:31:12;;;;;;;58.28;36.83;;;;;;;-0.33;100.00;101266.31;4974296;28;20181;-76
2023/01/20 08:33:38;;;;;;;58.78;37.20;;;;;;;-0.34;100.00;101264.59;4991432;28;20150;-74
2023/01/20 08:36:07;;;;;;;56.72;37.13;;;;;;;-0.34;100.00;101262.88;4991947;28;20042;-74
2023/01/20 08:38:33;;;;;;;58.10;38.10;;;;;;;-0.33;100.00;101255.97;5004986;28;20121;-76
2023/01/20 08:40:58;;;;;;;57.03;37.40;;;;;;;-0.35;100.00;101268.94;4973505;28;20166;-74
2023/01/20 08:43:25;;;;;;;53.58;35.80;;;;;;;-0.33;100.00;101274.06;4989949;28;20531;-74
2023/01/20 08:46:06;;;;;;;54.30;36.85;;;;;;;-0.30;100.00;101273.13;4990429;28;20038;-76
2023/01/20 08:48:32;;;;;;;56.15;35.92;;;;;;;-0.31;100.00;101274.88;4990572;28;20113;-76
2023/01/20 08:50:58;;;;;;;51.08;34.13;;;;;;;-0.32;100.00;101262.84;4992845;28;20065;-77
2023/01/20 08:53:23;;;;;;;52.60;35.63;;;;;;;-0.34;100.00;101272.34;4974090;28;20046;-76
2023/01/20 08:56:00;;;;;;;34.42;11.07;;;;;;;-0.24;100.00;101275.59;4971000;28;20034;-77
2023/01/20 08:58:27;;;;;;;52.67;34.55;;;;;;;-0.32;100.00;101280.94;4999945;28;20526;-77
2023/01/20 09:00:53;;;;;;;49.85;34.00;;;;;;;-0.32;100.00;101275.75;4990959;28;20518;-78
2023/01/20 09:03:21;;;;;;;56.72;36.58;;;;;;;-0.35;100.00;101273.25;4994833;28;20038;-79
2023/01/20 09:05:47;;;;;;;54.47;35.10;;;;;;;-0.33;100.00;101274.06;4991161;28;20030;-78
2023/01/20 09:08:14;;;;;;;54.70;35.78;;;;;;;-0.33;100.00;101272.31;4989661;28;20038;-78
2023/01/20 09:10:40;;;;;;;55.40;36.30;;;;;;;-0.31;100.00;101277.47;4992036;28;20380;-78
2023/01/20 09:13:05;;;;;;;54.10;36.50;;;;;;;-0.32;100.00;101280.94;4975986;28;20039;-78
2023/01/20 09:15:31;;;;;;;57.10;36.75;;;;;;;-0.34;100.00;101274.94;4990511;28;20129;-78
2023/01/20 09:17:57;;;;;;;30.20;11.02;;;;;;;-0.23;100.00;101279.88;4973691;28;20037;-79
2023/01/20 09:20:24;;;;;;;52.40;35.35;;;;;;;-0.29;100.00;101278.28;4973306;28;20085;-79
2023/01/20 09:22:50;;;;;;;49.40;35.22;;;;;;;-0.28;100.00;101277.38;4989545;28;20034;-79
2023/01/20 09:25:16;;;;;;;51.20;35.03;;;;;;;-0.29;100.00;101275.69;5005078;28;20045;-79
2023/01/20 09:27:41;;;;;;;49.28;34.30;;;;;;;-0.26;100.00;101279.94;4990430;28;20137;-79
2023/01/20 09:30:08;;;;;;;51.15;34.65;;;;;;;-0.25;100.00;101282.50;4990834;28;20085;-79
2023/01/20 09:32:33;;;;;;;49.08;34.50;;;;;;;-0.26;100.00;101283.38;4973884;28;20042;-79
2023/01/20 09:34:58;;;;;;;48.78;34.78;;;;;;;-0.26;100.00;101279.94;4997055;28;20545;-79
2023/01/20 09:46:19;;;;;;;47.45;33.47;;;;;;;-0.26;100.00;101305.78;5002708;28;20048;-77
2023/01/20 09:55:11;;;;;;;43.92;31.58;;;;;;;-0.26;100.00;101301.47;4992164;28;20093;-78
2023/01/20 09:57:41;;;;;;;43.38;30.63;;;;;;;-0.29;100.00;101304.13;4998373;28;20038;-79
2023/01/20 10:00:20;;;;;;;43.53;31.10;;;;;;;-0.23;100.00;101300.56;4993077;28;20037;-79
2023/01/20 10:02:51;;;;;;;40.83;29.75;;;;;;;-0.28;100.00;101297.22;4984023;28;20506;-79
2023/01/20 10:05:24;;;;;;;40.72;28.27;;;;;;;-0.28;100.00;101298.06;4999818;28;20541;-79
2023/01/20 10:08:05;;;;;;;22.90;8.68;;;;;;;-0.20;100.00;101292.72;5011501;28;20034;-78
2023/01/20 10:10:41;;;;;;;38.35;28.60;;;;;;;-0.29;100.00;101283.44;5011067;28;20034;-79
2023/01/20 10:13:22;;;;;;;36.65;27.30;;;;;;;-0.29;100.00;101286.03;4993028;28;20034;-79
2023/01/20 10:15:53;;;;;;;34.53;25.77;;;;;;;-0.31;100.00;101292.97;4994530;28;20041;-78
2023/01/20 10:18:27;;;;;;;31.48;25.00;;;;;;;-0.32;100.00;101291.28;5010446;28;20100;-79
2023/01/20 10:21:05;;;;;;;30.90;23.70;;;;;;;-0.30;100.00;101289.50;5012375;28;20033;-76
2023/01/20 10:23:52;;;;;;;30.58;23.30;;;;;;;-0.30;100.00;101292.09;5010287;28;20061;-78
2023/01/20 10:26:28;;;;;;;28.63;22.55;;;;;;;-0.32;100.00;101291.28;5010436;28;20112;-79
2023/01/20 10:29:00;;;;;;;29.33;22.30;;;;;;;-0.31;100.00;101287.81;5012014;28;20144;-79
2023/01/20 10:31:31;;;;;;;28.00;22.52;;;;;;;-0.31;100.00;101282.63;4987260;28;20022;-77
2023/01/20 10:34:04;;;;;;;26.10;21.23;;;;;;;-0.28;100.00;101285.16;4973896;28;20121;-77
2023/01/20 10:36:33;;;;;;;28.30;21.92;;;;;;;-0.27;100.00;101288.56;4991783;28;20030;-79
2023/01/20 10:39:20;;;;;;;26.80;21.67;;;;;;;-0.23;100.00;101280.72;4992313;28;20026;-79
2023/01/20 10:41:51;;;;;;;26.52;21.05;;;;;;;-0.23;100.00;101285.88;4992110;28;20030;-77
2023/01/20 10:44:17;;;;;;;29.15;21.40;;;;;;;-0.19;100.00;101287.53;4973984;28;20038;-77
2023/01/20 10:46:43;;;;;;;25.95;21.85;;;;;;;-0.20;100.00;101291.00;4990670;28;20100;-77
2023/01/20 10:49:32;;;;;;;25.98;21.80;;;;;;;-0.18;100.00;101288.38;4990959;28;20046;-77
2023/01/20 10:52:12;;;;;;;26.58;22.30;;;;;;;-0.16;100.00;101281.41;4990747;28;20039;-77
2023/01/20 10:54:50;;;;;;;25.35;21.55;;;;;;;-0.19;100.00;101287.53;4989368;28;20062;-77
2023/01/20 10:57:16;;;;;;;24.13;20.30;;;;;;;-0.19;100.00;101282.34;4991099;28;20042;-78
2023/01/20 10:59:52;;;;;;;22.58;19.58;;;;;;;-0.18;100.00;101278.88;4991491;28;20036;-77
2023/01/20 11:02:33;;;;;;;22.60;19.83;;;;;;;-0.13;100.00;101287.38;4990329;28;20137;-78
2023/01/20 11:05:01;;;;;;;24.50;20.33;;;;;;;-0.11;100.00;101288.19;4990907;28;20137;-77
2023/01/20 11:07:31;;;;;;;23.63;19.63;;;;;;;-0.08;100.00;101290.69;5004490;28;20089;-78
2023/01/20 11:10:00;;;;;;;22.00;19.23;;;;;;;-0.05;100.00;101289.78;4990322;28;20038;-78
2023/01/20 11:12:31;;;;;;;24.52;20.92;;;;;;;-0.04;100.00;101286.31;4974191;28;20030;-78
2023/01/20 11:14:59;;;;;;;21.83;19.15;;;;;;;-0.02;100.00;101285.38;4973009;28;20065;-79
2023/01/20 11:17:25;;;;;;;22.40;19.90;;;;;;;-0.02;100.00;101284.53;4973785;28;20034;-77
2023/01/20 11:19:56;;;;;;;23.27;19.98;;;;;;;-0.06;100.00;101293.25;4989774;28;20695;-80
2023/01/20 11:22:28;;;;;;;21.52;19.02;;;;;;;-0.04;100.00;101287.16;4970833;28;20216;-77
2023/01/20 11:24:55;;;;;;;25.13;20.55;;;;;;;-0.06;100.00;101288.94;4989151;28;20117;-79